createdAt,value
2019-03-19T00:01:56.379Z,1.39
2019-03-19T00:04:24.759Z,1.48
2019-03-19T00:06:53.135Z,1.51
2019-03-19T00:09:21.482Z,1.52
2019-03-19T00:11:50.726Z,1.43
2019-03-19T00:14:19.096Z,1.34
2019-03-19T00:16:47.456Z,1.28
2019-03-19T00:19:15.876Z,1.34
2019-03-19T00:21:44.209Z,1.36
2019-03-19T00:24:12.582Z,1.38
2019-03-19T00:26:40.928Z,1.43
2019-03-19T00:29:09.261Z,1.41
2019-03-19T00:31:37.600Z,1.36
2019-03-19T00:34:05.961Z,1.31
2019-03-19T00:36:34.348Z,1.08
2019-03-19T00:39:02.695Z,1.05
2019-03-19T00:41:31.053Z,1.09
2019-03-19T00:43:59.403Z,1.10
2019-03-19T00:46:27.755Z,1.11
2019-03-19T00:48:56.173Z,1.09
2019-03-19T00:51:24.528Z,1.08
2019-03-19T00:53:52.869Z,1.00
2019-03-19T00:56:21.207Z,1.00
2019-03-19T00:58:49.568Z,0.94
2019-03-19T01:01:17.988Z,0.93
2019-03-19T01:03:46.393Z,0.97
2019-03-19T01:06:14.796Z,0.99
2019-03-19T01:08:43.148Z,0.98
2019-03-19T01:11:11.485Z,0.92
2019-03-19T01:13:39.830Z,0.94
2019-03-19T01:16:08.173Z,0.90
2019-03-19T01:22:48.414Z,0.87
2019-03-19T01:25:17.012Z,0.73
2019-03-19T01:27:45.340Z,0.65
2019-03-19T01:30:15.601Z,0.62
2019-03-19T01:32:43.948Z,0.68
2019-03-19T01:35:12.387Z,0.68
2019-03-19T01:37:40.768Z,0.68
2019-03-19T01:40:11.794Z,0.65
2019-03-19T01:42:40.135Z,0.66
2019-03-19T01:45:09.299Z,0.59
2019-03-19T01:47:37.728Z,0.51
2019-03-19T01:50:06.777Z,0.34
2019-03-19T01:52:35.169Z,0.25
2019-03-19T01:55:03.534Z,0.12
2019-03-19T01:57:32.219Z,0.11
2019-03-19T02:00:00.635Z,0.13
2019-03-19T02:02:28.940Z,0.23
2019-03-19T02:04:57.287Z,0.48
2019-03-19T02:07:26.585Z,0.51
2019-03-19T02:09:54.948Z,0.58
2019-03-19T02:12:23.299Z,0.70
2019-03-19T02:14:51.648Z,0.80
2019-03-19T02:17:19.992Z,0.75
2019-03-19T02:19:48.332Z,0.74
2019-03-19T02:22:16.681Z,0.62
2019-03-19T02:24:45.121Z,0.63
2019-03-19T02:27:13.464Z,0.42
2019-03-19T02:29:41.842Z,0.34
2019-03-19T02:32:10.234Z,0.25
2019-03-19T02:37:13.882Z,0.27
2019-03-19T02:39:42.272Z,0.21
2019-03-19T02:42:10.761Z,0.25
2019-03-19T02:44:39.117Z,0.37
2019-03-19T02:47:07.465Z,0.40
2019-03-19T02:49:36.877Z,0.41
2019-03-19T02:52:05.856Z,0.41
2019-03-19T02:54:34.302Z,0.41
2019-03-19T02:57:02.669Z,0.47
2019-03-19T02:59:31.150Z,0.46
2019-03-19T03:01:59.487Z,0.54
2019-03-19T03:04:27.915Z,0.60
2019-03-19T03:06:56.244Z,0.66
2019-03-19T03:09:24.608Z,0.69
2019-03-19T03:11:52.942Z,0.75
2019-03-19T03:14:21.281Z,0.77
2019-03-19T03:16:49.633Z,0.80
2019-03-19T03:19:18.000Z,0.79
2019-03-19T03:21:46.327Z,0.69
2019-03-19T03:24:14.661Z,0.77
2019-03-19T03:26:48.319Z,0.75
2019-03-19T03:29:11.430Z,0.74
2019-03-19T03:31:39.818Z,0.82
2019-03-19T03:34:08.323Z,0.87
2019-03-19T03:36:36.685Z,0.97
2019-03-19T03:39:05.065Z,0.96
2019-03-19T03:41:33.397Z,0.94
2019-03-19T03:44:01.866Z,0.91
2019-03-19T03:46:30.190Z,0.97
2019-03-19T03:48:58.544Z,1.02
2019-03-19T03:51:26.907Z,1.08
2019-03-19T03:53:55.348Z,1.08
2019-03-19T03:56:23.672Z,1.05
2019-03-19T03:59:00.591Z,1.13
2019-03-19T04:01:20.385Z,1.15
2019-03-19T04:03:48.775Z,1.31
2019-03-19T04:08:54.473Z,1.37
2019-03-19T04:16:31.276Z,1.56
2019-03-19T04:18:59.631Z,1.75
2019-03-19T04:21:27.965Z,1.72
2019-03-19T04:23:56.363Z,1.72
2019-03-19T04:26:24.809Z,1.66
2019-03-19T04:28:53.173Z,1.84
2019-03-19T04:31:21.510Z,1.99
2019-03-19T04:33:49.904Z,1.90
2019-03-19T04:36:18.266Z,1.89
2019-03-19T04:38:46.611Z,1.90
2019-03-19T04:46:23.446Z,1.95
2019-03-19T04:48:51.831Z,1.99
2019-03-19T04:51:20.244Z,1.95
2019-03-19T04:53:48.616Z,2.00
2019-03-19T04:56:16.984Z,2.08
2019-03-19T04:58:46.218Z,2.03
2019-03-19T05:01:14.564Z,1.98
2019-03-19T05:03:42.893Z,1.84
2019-03-19T05:08:45.536Z,1.71
2019-03-19T05:11:13.889Z,1.69
2019-03-19T05:13:42.216Z,1.78
2019-03-19T05:16:10.605Z,1.78
2019-03-19T05:18:39.046Z,1.75
2019-03-19T05:21:07.414Z,1.77
2019-03-19T05:23:35.766Z,1.79
2019-03-19T05:26:04.113Z,1.69
2019-03-19T05:31:06.751Z,1.42
2019-03-19T05:33:35.081Z,1.42
2019-03-19T05:36:03.420Z,1.32
2019-03-19T05:38:32.727Z,1.27
2019-03-19T05:41:01.101Z,1.21
2019-03-19T05:43:29.490Z,1.17
2019-03-19T05:45:57.867Z,1.14
2019-03-19T05:48:26.289Z,1.08
2019-03-19T05:53:31.860Z,1.05
2019-03-19T05:56:00.392Z,1.16
2019-03-19T05:58:28.753Z,1.05
2019-03-19T06:00:57.257Z,1.05
2019-03-19T06:03:25.613Z,1.16
2019-03-19T06:05:54.054Z,1.10
2019-03-19T06:08:22.388Z,1.25
2019-03-19T06:10:50.745Z,1.26
2019-03-19T06:13:19.293Z,1.27
2019-03-19T06:15:47.883Z,1.33
2019-03-19T06:18:16.216Z,1.50
2019-03-19T06:20:44.637Z,1.70
2019-03-19T06:23:13.411Z,2.05
2019-03-19T06:28:16.043Z,2.53
2019-03-19T06:30:44.367Z,2.75
2019-03-19T06:33:12.702Z,3.06
2019-03-19T06:35:42.025Z,3.21
2019-03-19T06:38:10.387Z,3.33
2019-03-19T06:40:38.761Z,3.51
2019-03-19T06:43:07.150Z,3.60
2019-03-19T06:45:35.532Z,3.78
2019-03-19T06:48:03.879Z,3.93
2019-03-19T06:50:32.219Z,4.10
2019-03-19T06:53:00.551Z,4.12
2019-03-19T06:55:28.913Z,4.08
2019-03-19T06:57:57.259Z,4.38
2019-03-19T07:00:25.596Z,4.47
2019-03-19T07:02:53.943Z,4.21
2019-03-19T07:07:56.462Z,4.36
2019-03-19T07:10:25.735Z,4.27
2019-03-19T07:12:54.072Z,4.22
2019-03-19T07:17:56.688Z,4.53
2019-03-19T07:20:25.917Z,4.76
2019-03-19T07:22:54.331Z,4.86
2019-03-19T07:25:22.677Z,5.08
2019-03-19T07:27:51.011Z,4.74
2019-03-19T07:30:23.649Z,4.71
2019-03-19T07:32:52.010Z,4.58
2019-03-19T07:35:20.339Z,4.65
2019-03-19T07:40:25.981Z,4.92
2019-03-19T07:42:54.301Z,4.89
2019-03-19T07:45:22.649Z,4.98
2019-03-19T07:47:51.033Z,5.13
2019-03-19T07:50:20.877Z,5.22
2019-03-19T07:52:49.251Z,5.84
2019-03-19T07:55:17.605Z,5.98
2019-03-19T07:57:46.081Z,6.23
2019-03-19T08:00:14.407Z,6.79
2019-03-19T08:02:43.700Z,7.18
2019-03-19T08:05:12.047Z,7.53
2019-03-19T08:07:40.389Z,7.87
2019-03-19T08:12:43.914Z,7.97
2019-03-19T08:15:13.170Z,7.13
2019-03-19T08:17:42.946Z,7.51
2019-03-19T08:20:09.859Z,7.36
2019-03-19T08:22:38.227Z,7.87
2019-03-19T08:25:08.786Z,7.88
2019-03-19T08:27:35.830Z,7.53
2019-03-19T08:30:04.187Z,7.89
2019-03-19T08:32:32.559Z,7.68
2019-03-19T08:35:00.943Z,8.32
2019-03-19T08:37:29.323Z,8.23
2019-03-19T08:39:57.668Z,7.81
2019-03-19T08:45:03.332Z,7.37
2019-03-19T08:47:31.783Z,7.75
2019-03-19T08:50:00.134Z,7.62
2019-03-19T08:52:28.480Z,7.94
2019-03-19T08:54:56.813Z,7.21
2019-03-19T08:57:25.148Z,7.89
2019-03-19T08:59:53.511Z,7.58
2019-03-19T09:02:23.000Z,7.95
2019-03-19T09:04:51.420Z,8.76
2019-03-19T09:09:40.452Z,11.78
2019-03-19T09:12:08.798Z,12.91
2019-03-19T09:14:37.147Z,14.18
2019-03-19T09:17:05.494Z,12.65
2019-03-19T09:19:33.833Z,11.19
2019-03-19T09:22:02.188Z,13.05
2019-03-19T09:24:30.579Z,14.67
2019-03-19T09:26:58.930Z,15.57
2019-03-19T09:29:27.268Z,14.96
2019-03-19T09:31:56.532Z,18.59
2019-03-19T09:34:24.885Z,21.73
2019-03-19T09:36:57.620Z,22.11
2019-03-19T09:39:22.483Z,22.99
2019-03-19T09:41:50.827Z,23.29
2019-03-19T09:44:19.181Z,21.34
2019-03-19T09:46:47.547Z,18.66
2019-03-19T09:49:15.904Z,19.40
2019-03-19T09:51:44.244Z,16.76
2019-03-19T09:54:12.610Z,16.59
2019-03-19T09:56:40.952Z,15.37
2019-03-19T09:59:09.310Z,13.41
2019-03-19T10:01:37.647Z,12.00
2019-03-19T10:04:05.999Z,11.18
2019-03-19T10:09:08.651Z,10.92
2019-03-19T10:11:36.984Z,10.84
2019-03-19T10:14:05.329Z,8.86
2019-03-19T10:16:33.680Z,10.08
2019-03-19T10:19:02.056Z,11.37
2019-03-19T10:21:30.415Z,10.31
2019-03-19T10:23:58.739Z,9.31
2019-03-19T10:26:27.089Z,8.82
2019-03-19T10:28:55.422Z,9.03
2019-03-19T10:31:24.076Z,9.70
2019-03-19T10:33:52.434Z,9.65
2019-03-19T10:36:20.782Z,10.03
2019-03-19T10:38:49.229Z,12.37
2019-03-19T10:41:17.653Z,16.66
2019-03-19T10:43:46.011Z,19.68
2019-03-19T10:46:14.960Z,20.81
2019-03-19T10:48:42.731Z,22.10
2019-03-19T10:51:11.094Z,19.60
2019-03-19T10:56:16.800Z,26.22
2019-03-19T11:01:20.565Z,24.10
2019-03-19T11:03:49.858Z,27.19
2019-03-19T11:06:18.217Z,27.04
2019-03-19T11:08:46.590Z,29.84
2019-03-19T11:11:14.953Z,28.37
2019-03-19T11:13:43.285Z,26.36
2019-03-19T11:16:11.647Z,19.98
2019-03-19T11:18:40.066Z,19.30
2019-03-19T11:21:08.380Z,16.24
2019-03-19T11:23:36.728Z,14.83
2019-03-19T11:26:05.071Z,13.11
2019-03-19T11:28:33.560Z,12.44
2019-03-19T11:31:01.922Z,11.96
2019-03-19T11:33:30.260Z,11.77
2019-03-19T11:35:58.613Z,12.56
2019-03-19T11:38:26.941Z,12.79
2019-03-19T11:40:55.292Z,13.15
2019-03-19T11:43:23.652Z,13.61
2019-03-19T11:45:52.015Z,14.47
2019-03-19T11:48:20.368Z,15.79
2019-03-19T11:50:48.759Z,14.97
2019-03-19T11:53:17.118Z,14.66
2019-03-19T11:55:45.538Z,13.54
2019-03-19T12:00:48.451Z,12.64
2019-03-19T12:03:16.854Z,12.29
2019-03-19T12:05:45.224Z,11.49
2019-03-19T12:08:13.585Z,12.60
2019-03-19T12:10:41.948Z,15.99
2019-03-19T12:13:10.291Z,20.72
2019-03-19T12:15:38.879Z,23.65
2019-03-19T12:18:07.240Z,23.67
2019-03-19T12:20:35.598Z,21.69
2019-03-19T12:23:04.144Z,19.43
2019-03-19T12:28:06.800Z,13.41
2019-03-19T12:30:35.288Z,13.87
2019-03-19T12:35:37.981Z,10.44
2019-03-19T12:38:06.326Z,10.75
2019-03-19T12:40:37.250Z,10.65
2019-03-19T12:43:03.090Z,11.33
2019-03-19T12:45:31.442Z,11.13
2019-03-19T12:50:34.124Z,11.25
2019-03-19T12:53:02.523Z,10.32
2019-03-19T12:58:10.177Z,11.30
2019-03-19T13:00:38.536Z,10.82
2019-03-19T13:03:06.897Z,11.16
2019-03-19T13:05:35.241Z,14.72
2019-03-19T13:08:03.630Z,15.93
2019-03-19T13:10:31.969Z,14.34
2019-03-19T13:13:00.355Z,13.03
2019-03-19T13:15:28.694Z,14.79
2019-03-19T13:17:57.057Z,13.31
2019-03-19T13:22:59.652Z,19.26
2019-03-19T13:25:28.120Z,23.97
2019-03-19T13:27:56.449Z,26.03
2019-03-19T13:30:28.578Z,23.87
2019-03-19T13:32:56.909Z,22.98
2019-03-19T13:35:25.262Z,20.46
2019-03-19T13:37:53.701Z,15.19
2019-03-19T13:40:22.079Z,14.47
2019-03-19T13:42:50.460Z,12.51
2019-03-19T13:45:18.852Z,11.48
2019-03-19T13:47:47.239Z,11.87
2019-03-19T13:50:16.369Z,11.68
2019-03-19T13:52:44.755Z,10.65
2019-03-19T13:55:15.071Z,12.90
2019-03-19T13:57:43.490Z,14.06
2019-03-19T14:00:13.778Z,11.78
2019-03-19T14:02:42.168Z,12.16
2019-03-19T14:05:11.435Z,13.42
2019-03-19T14:07:39.780Z,14.69
2019-03-19T14:10:12.788Z,14.51
2019-03-19T14:12:41.139Z,15.78
2019-03-19T14:17:46.744Z,17.25
2019-03-19T14:20:17.673Z,19.15
2019-03-19T14:22:46.024Z,21.53
2019-03-19T14:27:48.688Z,24.48
2019-03-19T14:30:17.025Z,24.35
2019-03-19T14:32:45.384Z,23.96
2019-03-19T14:35:13.740Z,25.37
2019-03-19T14:37:42.252Z,25.16
2019-03-19T14:42:48.828Z,24.97
2019-03-19T14:45:17.214Z,20.26
2019-03-19T14:47:45.568Z,17.09
2019-03-19T14:50:14.677Z,14.10
2019-03-19T14:52:43.995Z,14.28
2019-03-19T14:56:22.828Z,12.08
2019-03-19T14:58:51.172Z,11.12
2019-03-19T15:01:19.919Z,10.89
2019-03-19T15:03:47.890Z,10.99
2019-03-19T15:06:16.220Z,10.73
2019-03-19T15:08:44.571Z,10.62
2019-03-19T15:11:12.960Z,10.21
2019-03-19T15:13:41.361Z,9.97
2019-03-19T15:16:15.422Z,9.80
2019-03-19T15:18:44.737Z,10.09
2019-03-19T15:21:13.080Z,11.44
2019-03-19T15:23:41.451Z,14.51
2019-03-19T15:26:09.794Z,13.62
2019-03-19T15:28:38.156Z,13.36
2019-03-19T15:31:06.501Z,12.68
2019-03-19T15:33:34.857Z,13.25
2019-03-19T15:36:03.205Z,13.52
2019-03-19T15:38:31.551Z,14.29
2019-03-19T15:40:59.889Z,15.96
2019-03-19T15:43:28.245Z,15.25
2019-03-19T15:48:30.869Z,14.31
2019-03-19T15:51:00.204Z,13.48
2019-03-19T15:56:05.919Z,12.63
2019-03-19T15:58:34.356Z,11.96
2019-03-19T16:01:02.701Z,12.33
2019-03-19T16:03:31.044Z,12.21
2019-03-19T16:05:59.501Z,11.93
2019-03-19T16:08:27.860Z,11.98
2019-03-19T16:10:56.247Z,11.95
2019-03-19T16:13:24.603Z,11.31
2019-03-19T16:15:52.966Z,10.18
2019-03-19T16:18:21.292Z,10.14
2019-03-19T16:20:49.657Z,10.33
2019-03-19T16:23:18.040Z,9.77
2019-03-19T16:25:46.414Z,9.39
2019-03-19T16:28:14.825Z,9.07
2019-03-19T16:30:43.191Z,8.81
2019-03-19T16:33:11.544Z,8.64
2019-03-19T16:35:39.890Z,8.26
2019-03-19T16:38:08.241Z,8.00
2019-03-19T16:40:36.636Z,7.61
2019-03-19T16:43:04.996Z,7.52
2019-03-19T16:45:33.358Z,7.37
2019-03-19T16:48:01.694Z,7.28
2019-03-19T16:50:30.051Z,7.16
2019-03-19T16:52:58.450Z,6.96
2019-03-19T16:55:26.960Z,6.75
2019-03-19T16:57:55.512Z,6.70
2019-03-19T17:00:25.636Z,6.52
2019-03-19T17:02:54.035Z,6.24
2019-03-19T17:05:22.377Z,6.16
2019-03-19T17:07:50.711Z,5.95
2019-03-19T17:10:29.073Z,6.04
2019-03-19T17:12:57.412Z,5.75
2019-03-19T17:15:26.763Z,5.56
2019-03-19T17:17:55.182Z,5.44
2019-03-19T17:20:23.522Z,5.16
2019-03-19T17:22:51.893Z,4.57
2019-03-19T17:25:21.736Z,4.58
2019-03-19T17:27:50.107Z,4.49
2019-03-19T17:30:33.771Z,4.20
2019-03-19T17:33:04.104Z,3.92
2019-03-19T17:35:32.449Z,3.80
2019-03-19T17:38:00.791Z,3.58
2019-03-19T17:40:29.162Z,3.49
2019-03-19T17:42:57.494Z,3.29
2019-03-19T17:45:25.850Z,3.21
2019-03-19T17:47:55.129Z,3.16
2019-03-19T17:50:28.100Z,3.10
2019-03-19T17:52:56.609Z,2.95
2019-03-19T17:55:24.826Z,2.93
2019-03-19T17:57:53.159Z,2.83
2019-03-19T18:00:21.502Z,2.80
2019-03-19T18:02:49.866Z,2.73
2019-03-19T18:05:18.249Z,2.62
2019-03-19T18:07:46.580Z,2.39
2019-03-19T18:10:14.962Z,2.20
2019-03-19T18:12:43.303Z,2.39
2019-03-19T18:15:12.561Z,2.16
2019-03-19T18:17:40.924Z,2.05
2019-03-19T18:22:43.646Z,2.02
2019-03-19T18:25:14.906Z,1.94
2019-03-19T18:27:43.296Z,1.91
2019-03-19T18:30:16.865Z,1.81
2019-03-19T18:32:45.247Z,1.71
2019-03-19T18:35:14.626Z,1.69
2019-03-19T18:37:43.001Z,1.59
2019-03-19T18:42:46.556Z,1.20
2019-03-19T18:45:15.800Z,1.04
2019-03-19T18:47:44.183Z,0.89
2019-03-19T18:50:22.269Z,0.87
2019-03-19T18:52:50.664Z,0.92
2019-03-19T18:55:19.035Z,1.12
2019-03-19T18:57:47.415Z,1.08
2019-03-19T19:00:17.338Z,0.97
2019-03-19T19:02:50.298Z,1.01
2019-03-19T19:05:15.608Z,0.89
2019-03-19T19:07:44.001Z,0.87
2019-03-19T19:10:13.881Z,0.71
2019-03-19T19:12:42.231Z,0.66
2019-03-19T19:15:26.985Z,0.53
2019-03-19T19:17:55.369Z,0.49
2019-03-19T19:20:23.703Z,0.38
2019-03-19T19:25:36.290Z,0.36
2019-03-19T19:28:04.677Z,0.46
2019-03-19T19:30:33.021Z,0.44
2019-03-19T19:33:02.518Z,0.62
2019-03-19T19:35:29.708Z,0.47
2019-03-19T19:37:58.088Z,0.39
2019-03-19T19:40:26.486Z,0.31
2019-03-19T19:42:54.832Z,0.33
2019-03-19T19:45:23.178Z,0.28
2019-03-19T19:47:51.578Z,0.29
2019-03-19T19:50:19.977Z,0.34
2019-03-19T19:52:49.269Z,0.23
2019-03-19T19:55:17.705Z,0.30
2019-03-19T19:57:46.192Z,0.25
2019-03-19T20:00:19.062Z,0.36
2019-03-19T20:02:47.449Z,0.42
2019-03-19T20:05:15.773Z,0.35
2019-03-19T20:07:44.118Z,0.38
2019-03-19T20:10:14.785Z,0.35
2019-03-19T20:12:43.170Z,0.24
2019-03-19T20:15:11.553Z,0.22
2019-03-19T20:17:39.892Z,0.00
2019-03-19T20:20:08.258Z,-0.17
2019-03-19T20:22:36.658Z,-0.16
2019-03-19T20:25:05.014Z,-0.28
2019-03-19T20:27:33.413Z,-0.44
2019-03-19T20:30:01.776Z,-0.33
2019-03-19T20:32:30.122Z,-0.37
2019-03-19T20:34:58.484Z,-0.36
2019-03-19T20:37:26.842Z,-0.49
2019-03-19T20:39:55.212Z,-0.42
2019-03-19T20:42:23.553Z,-0.48
2019-03-19T20:44:52.019Z,-0.50
2019-03-19T20:47:20.345Z,-0.65
2019-03-19T20:49:48.700Z,-0.77
2019-03-19T20:52:17.082Z,-0.67
2019-03-19T20:54:45.521Z,-0.70
2019-03-19T20:57:13.964Z,-0.66
2019-03-19T20:59:42.396Z,-0.58
2019-03-19T21:02:10.798Z,-0.64
2019-03-19T21:04:39.207Z,-0.64
2019-03-19T21:07:07.658Z,-0.66
2019-03-19T21:09:36.149Z,-0.64
2019-03-19T21:12:04.534Z,-0.61
2019-03-19T21:14:33.027Z,-0.54
2019-03-19T21:17:01.375Z,-0.44
2019-03-19T21:19:29.760Z,-0.29
2019-03-19T21:22:00.449Z,-0.22
2019-03-19T21:24:26.622Z,-0.40
2019-03-19T21:26:54.954Z,-0.49
2019-03-19T21:31:57.557Z,-0.29
2019-03-19T21:34:25.939Z,-0.25
2019-03-19T21:36:54.330Z,-0.30
2019-03-19T21:39:22.702Z,-0.27
2019-03-19T21:41:51.094Z,-0.31
2019-03-19T21:44:19.469Z,-0.35
2019-03-19T21:46:47.863Z,-0.35
2019-03-19T21:49:16.246Z,-0.39
2019-03-19T21:51:45.609Z,-0.33
2019-03-19T21:54:13.990Z,-0.20
2019-03-19T21:56:42.376Z,-0.23
2019-03-19T21:59:10.725Z,-0.29
2019-03-19T22:01:39.308Z,-0.53
2019-03-19T22:04:07.665Z,-0.54
2019-03-19T22:06:36.070Z,-0.58
2019-03-19T22:09:04.483Z,-0.60
2019-03-19T22:11:32.849Z,-0.59
2019-03-19T22:14:01.226Z,-0.52
2019-03-19T22:16:29.604Z,-0.41
2019-03-19T22:18:58.087Z,-0.42
2019-03-19T22:21:26.442Z,-0.39
2019-03-19T22:23:54.843Z,-0.41
2019-03-19T22:26:23.177Z,-0.38
2019-03-19T22:28:52.420Z,-0.44
2019-03-19T22:31:22.683Z,-0.42
2019-03-19T22:33:51.071Z,-0.50
2019-03-19T22:36:19.478Z,-0.50
2019-03-19T22:38:47.943Z,-0.51
2019-03-19T22:42:17.357Z,-0.42
2019-03-19T22:44:45.729Z,-0.30
2019-03-19T22:47:14.110Z,-0.29
2019-03-19T22:49:42.581Z,-0.17
2019-03-19T22:54:45.231Z,-0.09
2019-03-19T22:57:13.569Z,-0.08
2019-03-19T22:59:41.921Z,-0.15
2019-03-19T23:02:11.217Z,-0.11
2019-03-19T23:04:39.586Z,-0.16
2019-03-19T23:09:42.168Z,0.04
2019-03-19T23:12:10.507Z,0.21
2019-03-19T23:14:38.877Z,0.28
2019-03-19T23:17:07.263Z,0.29
2019-03-19T23:19:36.530Z,0.26
2019-03-19T23:22:04.927Z,0.15
2019-03-19T23:24:33.257Z,-0.09
2019-03-19T23:27:01.626Z,-0.06
2019-03-19T23:29:30.092Z,-0.10
2019-03-19T23:31:58.583Z,0.02
2019-03-19T23:34:26.931Z,0.25
2019-03-19T23:36:55.306Z,0.46
2019-03-19T23:39:23.709Z,0.40
2019-03-19T23:41:52.102Z,0.18
2019-03-19T23:44:20.466Z,-0.04
2019-03-19T23:46:48.814Z,-0.09
2019-03-19T23:49:17.164Z,-0.03
2019-03-19T23:51:45.554Z,0.13
2019-03-19T23:56:50.124Z,0.13
2019-03-19T23:59:18.471Z,-0.02
